createdAt,value
2019-02-12T00:00:57.797Z,1.97
2019-02-12T00:03:27.216Z,1.93
2019-02-12T00:05:56.611Z,2.17
2019-02-12T00:08:26.657Z,1.63
2019-02-12T00:10:56.157Z,1.77
2019-02-12T00:13:25.545Z,2.27
2019-02-12T00:15:54.967Z,1.80
2019-02-12T00:18:24.437Z,2.00
2019-02-12T00:20:53.919Z,2.97
2019-02-12T00:23:23.313Z,1.73
2019-02-12T00:25:52.741Z,3.10
2019-02-12T00:28:22.283Z,2.70
2019-02-12T00:30:51.703Z,2.53
2019-02-12T00:33:21.096Z,2.53
2019-02-12T00:35:50.664Z,3.20
2019-02-12T00:38:20.145Z,2.73
2019-02-12T00:40:49.570Z,2.63
2019-02-12T00:43:19.033Z,2.50
2019-02-12T00:45:48.391Z,2.70
2019-02-12T00:48:17.831Z,2.57
2019-02-12T00:50:47.319Z,1.60
2019-02-12T00:53:16.699Z,1.80
2019-02-12T00:55:46.041Z,1.50
2019-02-12T00:58:15.556Z,1.17
2019-02-12T01:00:44.967Z,1.13
2019-02-12T01:03:14.422Z,1.07
2019-02-12T01:05:43.840Z,0.90
2019-02-12T01:08:13.287Z,0.90
2019-02-12T01:10:42.770Z,1.00
2019-02-12T01:13:12.301Z,1.47
2019-02-12T01:15:41.719Z,1.43
2019-02-12T01:18:11.104Z,1.17
2019-02-12T01:20:40.469Z,1.40
2019-02-12T01:23:10.003Z,1.13
2019-02-12T01:25:39.417Z,1.57
2019-02-12T01:28:08.867Z,2.33
2019-02-12T01:30:38.403Z,1.87
2019-02-12T01:33:08.066Z,1.33
2019-02-12T01:35:37.574Z,1.00
2019-02-12T01:38:06.928Z,1.63
2019-02-12T01:40:36.542Z,1.63
2019-02-12T01:43:05.962Z,1.60
2019-02-12T01:45:35.415Z,1.70
2019-02-12T01:48:04.843Z,1.53
2019-02-12T01:50:34.344Z,1.50
2019-02-12T01:53:03.831Z,1.50
2019-02-12T01:55:33.225Z,1.47
2019-02-12T01:58:02.582Z,1.30
2019-02-12T02:00:32.208Z,1.10
2019-02-12T02:03:01.661Z,1.60
2019-02-12T02:05:31.171Z,1.13
2019-02-12T02:08:00.900Z,1.30
2019-02-12T02:10:30.292Z,1.20
2019-02-12T02:13:00.224Z,1.73
2019-02-12T02:15:29.688Z,1.60
2019-02-12T02:17:59.072Z,1.83
2019-02-12T02:20:28.524Z,1.60
2019-02-12T02:22:57.898Z,1.57
2019-02-12T02:25:27.235Z,2.00
2019-02-12T02:27:58.139Z,1.87
2019-02-12T02:30:27.508Z,1.83
2019-02-12T02:32:57.083Z,1.80
2019-02-12T02:35:26.433Z,1.63
2019-02-12T02:37:55.935Z,1.97
2019-02-12T02:40:25.359Z,1.70
2019-02-12T02:42:54.909Z,1.70
2019-02-12T02:45:24.404Z,1.80
2019-02-12T02:47:53.791Z,2.23
2019-02-12T02:50:23.280Z,1.93
2019-02-12T02:52:53.328Z,1.47
2019-02-12T02:55:22.804Z,1.67
2019-02-12T02:57:52.198Z,1.80
2019-02-12T03:00:22.127Z,1.20
2019-02-12T03:02:53.160Z,1.40
2019-02-12T03:05:22.690Z,1.43
2019-02-12T03:07:52.214Z,1.57
2019-02-12T03:10:21.635Z,1.70
2019-02-12T03:12:51.077Z,1.47
2019-02-12T03:15:20.525Z,1.80
2019-02-12T03:17:49.979Z,1.77
2019-02-12T03:20:19.427Z,1.90
2019-02-12T03:22:48.799Z,2.20
2019-02-12T03:25:18.191Z,1.70
2019-02-12T03:27:47.703Z,2.03
2019-02-12T03:30:17.451Z,1.70
2019-02-12T03:32:46.900Z,2.03
2019-02-12T03:35:16.355Z,1.90
2019-02-12T03:37:45.850Z,2.20
2019-02-12T03:40:15.313Z,2.00
2019-02-12T03:43:04.235Z,1.63
2019-02-12T03:45:33.716Z,1.90
2019-02-12T03:48:03.206Z,1.43
2019-02-12T03:50:32.676Z,1.47
2019-02-12T03:53:02.286Z,1.57
2019-02-12T03:55:31.751Z,1.20
2019-02-12T03:58:01.178Z,1.43
2019-02-12T04:00:30.620Z,1.10
2019-02-12T04:03:05.283Z,1.40
2019-02-12T04:05:36.014Z,1.40
2019-02-12T04:08:05.742Z,1.50
2019-02-12T04:10:35.295Z,1.60
2019-02-12T04:13:04.786Z,1.53
2019-02-12T04:15:34.370Z,1.83
2019-02-12T04:18:03.784Z,1.70
2019-02-12T04:20:33.230Z,2.33
2019-02-12T04:23:02.672Z,1.43
2019-02-12T04:25:32.235Z,1.77
2019-02-12T04:28:01.735Z,1.83
2019-02-12T04:30:31.306Z,2.13
2019-02-12T04:33:00.700Z,1.87
2019-02-12T04:35:30.170Z,2.23
2019-02-12T04:37:59.664Z,3.03
2019-02-12T04:40:29.138Z,2.30
2019-02-12T04:42:58.565Z,2.63
2019-02-12T04:45:28.089Z,2.50
2019-02-12T04:47:57.443Z,3.53
2019-02-12T04:50:26.827Z,2.03
2019-02-12T04:52:56.272Z,2.17
2019-02-12T04:55:25.876Z,2.00
2019-02-12T04:57:55.284Z,1.67
2019-02-12T05:00:24.816Z,2.23
2019-02-12T05:02:54.322Z,1.93
2019-02-12T05:05:23.868Z,2.60
2019-02-12T05:07:53.320Z,2.13
2019-02-12T05:10:26.249Z,2.10
2019-02-12T05:12:55.632Z,2.27
2019-02-12T05:15:25.016Z,2.90
2019-02-12T05:17:54.539Z,2.03
2019-02-12T05:20:23.967Z,1.80
2019-02-12T05:22:53.419Z,2.10
2019-02-12T05:25:22.787Z,1.80
2019-02-12T05:27:53.755Z,1.90
2019-02-12T05:30:23.279Z,1.53
2019-02-12T05:32:52.791Z,1.53
2019-02-12T05:35:22.216Z,1.50
2019-02-12T05:38:04.299Z,1.57
2019-02-12T05:40:34.139Z,2.13
2019-02-12T05:43:03.660Z,2.70
2019-02-12T05:45:33.002Z,2.37
2019-02-12T05:48:02.626Z,2.47
2019-02-12T05:50:32.115Z,2.40
2019-02-12T05:53:01.509Z,2.30
2019-02-12T05:55:30.856Z,2.20
2019-02-12T05:58:00.311Z,3.00
2019-02-12T06:00:31.441Z,2.90
2019-02-12T06:03:00.931Z,2.47
2019-02-12T06:05:30.745Z,2.40
2019-02-12T06:08:00.257Z,2.40
2019-02-12T06:10:30.125Z,2.40
2019-02-12T06:12:59.647Z,2.03
2019-02-12T06:15:29.179Z,2.87
2019-02-12T06:17:58.568Z,2.57
2019-02-12T06:20:28.092Z,2.37
2019-02-12T06:23:03.737Z,2.70
2019-02-12T06:25:28.780Z,2.53
2019-02-12T06:27:58.300Z,2.80
2019-02-12T06:30:27.643Z,2.60
2019-02-12T06:32:57.048Z,2.60
2019-02-12T06:35:26.399Z,2.47
2019-02-12T06:37:55.915Z,2.93
2019-02-12T06:40:25.310Z,2.53
2019-02-12T06:42:54.683Z,2.73
2019-02-12T06:45:24.108Z,3.13
2019-02-12T06:47:53.539Z,2.73
2019-02-12T06:50:22.965Z,3.17
2019-02-12T06:52:52.500Z,3.43
2019-02-12T06:55:21.851Z,2.90
2019-02-12T06:57:51.249Z,3.37
2019-02-12T07:00:20.788Z,4.07
2019-02-12T07:03:23.184Z,3.03
2019-02-12T07:06:14.931Z,3.30
2019-02-12T07:08:50.403Z,3.07
2019-02-12T07:11:55.471Z,3.10
2019-02-12T07:14:40.682Z,3.00
2019-02-12T07:17:18.683Z,7.80
2019-02-12T07:19:54.006Z,3.83
2019-02-12T07:23:05.289Z,2.80
2019-02-12T07:26:02.915Z,2.77
2019-02-12T07:28:38.068Z,3.90
2019-02-12T07:31:26.939Z,3.57
2019-02-12T07:34:05.175Z,3.20
2019-02-12T07:36:59.767Z,3.03
2019-02-12T07:39:53.899Z,3.43
2019-02-12T07:42:32.226Z,4.00
2019-02-12T07:45:21.512Z,3.80
2019-02-12T07:48:02.883Z,3.60
2019-02-12T07:50:52.096Z,3.87
2019-02-12T07:53:30.864Z,3.93
2019-02-12T07:56:27.714Z,4.57
2019-02-12T07:59:20.791Z,3.20
2019-02-12T08:01:55.871Z,3.47
2019-02-12T08:04:52.145Z,2.97
2019-02-12T08:07:44.754Z,3.37
2019-02-12T08:11:00.934Z,3.43
2019-02-12T08:13:33.400Z,3.63
2019-02-12T08:16:31.260Z,3.00
2019-02-12T08:19:20.085Z,2.70
2019-02-12T08:22:14.496Z,3.23
2019-02-12T08:25:02.115Z,3.43
2019-02-12T08:27:40.486Z,2.77
2019-02-12T08:30:26.456Z,2.70
2019-02-12T08:33:19.695Z,3.07
2019-02-12T08:36:03.964Z,4.07
2019-02-12T08:39:09.763Z,3.23
2019-02-12T08:42:05.736Z,3.60
2019-02-12T08:44:38.213Z,3.10
2019-02-12T08:47:27.245Z,3.83
2019-02-12T08:50:11.698Z,3.17
2019-02-12T08:53:03.915Z,2.93
2019-02-12T08:55:42.378Z,2.80
2019-02-12T08:58:27.329Z,3.00
2019-02-12T09:01:04.304Z,3.17
2019-02-12T09:03:36.884Z,2.53
2019-02-12T09:06:16.895Z,3.37
2019-02-12T09:09:09.933Z,2.83
2019-02-12T09:11:42.473Z,3.00
2019-02-12T09:14:15.015Z,2.83
2019-02-12T09:17:09.873Z,2.80
2019-02-12T09:19:55.801Z,2.57
2019-02-12T09:22:31.377Z,2.60
2019-02-12T09:25:16.094Z,2.87
2019-02-12T09:28:03.822Z,2.90
2019-02-12T09:30:57.480Z,2.50
2019-02-12T09:33:46.756Z,2.70
2019-02-12T09:36:25.535Z,2.00
2019-02-12T09:39:06.697Z,2.77
2019-02-12T09:41:45.072Z,2.90
2019-02-12T09:44:28.011Z,2.87
2019-02-12T09:47:18.264Z,2.90
2019-02-12T09:49:59.529Z,3.20
2019-02-12T09:52:51.157Z,3.10
2019-02-12T09:55:38.177Z,2.70
2019-02-12T09:58:10.744Z,2.23
2019-02-12T10:00:43.276Z,2.40
2019-02-12T10:03:33.421Z,2.50
2019-02-12T10:06:35.796Z,2.80
2019-02-12T10:09:31.120Z,2.70
2019-02-12T10:12:06.420Z,2.97
2019-02-12T10:14:41.738Z,2.80
2019-02-12T10:17:14.658Z,3.20
2019-02-12T10:19:47.399Z,2.87
2019-02-12T10:22:25.615Z,2.50
2019-02-12T10:25:04.494Z,2.57
2019-02-12T10:27:52.253Z,2.97
2019-02-12T10:30:34.046Z,3.07
2019-02-12T10:33:03.477Z,3.00
2019-02-12T10:35:33.020Z,3.23
2019-02-12T10:38:02.548Z,3.40
2019-02-12T10:40:33.442Z,3.70
2019-02-12T10:43:02.907Z,3.13
2019-02-12T10:45:32.299Z,3.30
2019-02-12T10:48:02.447Z,3.20
2019-02-12T10:50:31.925Z,3.57
2019-02-12T10:53:01.856Z,4.00
2019-02-12T10:55:31.249Z,3.60
2019-02-12T10:58:00.731Z,3.67
2019-02-12T11:00:30.656Z,3.40
2019-02-12T11:03:00.164Z,3.23
2019-02-12T11:05:29.715Z,3.67
2019-02-12T11:07:59.187Z,3.50
2019-02-12T11:10:28.662Z,3.57
2019-02-12T11:12:58.141Z,4.60
2019-02-12T11:15:27.888Z,3.67
2019-02-12T11:17:57.331Z,3.53
2019-02-12T11:20:26.793Z,3.37
2019-02-12T11:22:56.162Z,3.97
2019-02-12T11:25:25.725Z,3.73
2019-02-12T11:27:55.335Z,3.57
2019-02-12T11:30:24.891Z,3.30
2019-02-12T11:32:54.326Z,3.27
2019-02-12T11:35:24.216Z,3.73
2019-02-12T11:37:53.647Z,3.43
2019-02-12T11:40:23.173Z,3.33
2019-02-12T11:42:52.668Z,3.70
2019-02-12T11:45:22.399Z,3.00
2019-02-12T11:47:51.821Z,4.30
2019-02-12T11:50:21.208Z,4.43
2019-02-12T11:52:50.694Z,4.10
2019-02-12T11:55:20.105Z,4.17
2019-02-12T11:57:49.460Z,5.33
2019-02-12T12:00:20.787Z,4.97
2019-02-12T12:02:50.273Z,4.60
2019-02-12T12:05:19.806Z,4.97
2019-02-12T12:07:49.241Z,5.10
2019-02-12T12:10:18.918Z,5.23
2019-02-12T12:12:48.368Z,5.23
2019-02-12T12:15:19.525Z,5.30
2019-02-12T12:17:48.987Z,5.60
2019-02-12T12:20:18.392Z,5.33
2019-02-12T12:22:47.828Z,5.73
2019-02-12T12:25:17.224Z,6.63
2019-02-12T12:27:46.589Z,6.70
2019-02-12T12:30:16.508Z,6.80
2019-02-12T12:32:46.017Z,8.40
2019-02-12T12:35:15.493Z,8.33
2019-02-12T12:37:44.859Z,9.13
2019-02-12T12:40:14.524Z,8.83
2019-02-12T12:42:43.914Z,9.70
2019-02-12T12:45:16.344Z,9.00
2019-02-12T12:47:45.917Z,9.97
2019-02-12T12:50:15.298Z,9.60
2019-02-12T12:52:44.727Z,9.60
2019-02-12T12:55:14.191Z,8.83
2019-02-12T12:57:44.122Z,9.33
2019-02-12T13:00:15.503Z,9.87
2019-02-12T13:02:48.308Z,9.90
2019-02-12T13:05:17.822Z,9.27
2019-02-12T13:07:47.184Z,10.23
2019-02-12T13:10:17.720Z,10.03
2019-02-12T13:12:47.153Z,9.67
2019-02-12T13:15:16.683Z,9.40
2019-02-12T13:17:46.110Z,9.90
2019-02-12T13:20:28.798Z,9.17
2019-02-12T13:22:58.196Z,9.63
2019-02-12T13:25:27.744Z,9.40
2019-02-12T13:27:57.219Z,9.33
2019-02-12T13:30:28.158Z,8.77
2019-02-12T13:32:57.636Z,8.93
2019-02-12T13:35:27.182Z,9.10
2019-02-12T13:37:56.556Z,9.10
2019-02-12T13:40:25.954Z,8.67
2019-02-12T13:42:55.472Z,7.87
2019-02-12T13:45:25.190Z,7.37
2019-02-12T13:47:54.888Z,6.33
2019-02-12T13:50:24.358Z,7.10
2019-02-12T13:52:53.998Z,7.57
2019-02-12T13:55:23.529Z,5.80
2019-02-12T13:57:54.493Z,5.93
2019-02-12T14:00:23.975Z,5.23
2019-02-12T14:02:53.357Z,5.10
2019-02-12T14:05:24.198Z,5.67
2019-02-12T14:07:53.784Z,5.23
2019-02-12T14:10:25.019Z,4.93
2019-02-12T14:12:54.459Z,5.00
2019-02-12T14:15:23.975Z,4.93
2019-02-12T14:17:53.494Z,4.97
2019-02-12T14:20:22.908Z,4.90
2019-02-12T14:22:52.364Z,5.33
2019-02-12T14:25:25.604Z,4.70
2019-02-12T14:27:53.091Z,4.73
2019-02-12T14:30:23.315Z,5.10
2019-02-12T14:32:52.715Z,4.47
2019-02-12T14:35:22.260Z,5.43
2019-02-12T14:37:52.611Z,5.03
2019-02-12T14:40:22.053Z,5.00
2019-02-12T14:42:51.470Z,5.30
2019-02-12T14:45:21.072Z,4.30
2019-02-12T14:47:50.595Z,4.73
2019-02-12T14:50:20.889Z,4.87
2019-02-12T14:52:50.326Z,4.17
2019-02-12T14:55:19.773Z,4.37
2019-02-12T14:57:50.628Z,4.20
2019-02-12T15:00:20.859Z,4.70
2019-02-12T15:02:50.413Z,4.27
2019-02-12T15:05:19.861Z,5.37
2019-02-12T15:07:49.315Z,5.27
2019-02-12T15:10:18.781Z,4.97
2019-02-12T15:12:48.779Z,4.87
2019-02-12T15:15:18.335Z,5.00
2019-02-12T15:17:47.903Z,5.17
2019-02-12T15:20:17.392Z,5.60
2019-02-12T15:22:46.791Z,4.50
2019-02-12T15:25:16.345Z,4.67
2019-02-12T15:27:45.784Z,5.23
2019-02-12T15:30:16.796Z,5.20
2019-02-12T15:32:46.247Z,5.03
2019-02-12T15:35:15.775Z,4.83
2019-02-12T15:37:45.521Z,4.83
2019-02-12T15:40:18.883Z,5.00
2019-02-12T15:42:48.416Z,5.07
2019-02-12T15:45:19.868Z,4.87
2019-02-12T15:47:49.421Z,4.57
2019-02-12T15:50:18.856Z,6.83
2019-02-12T15:52:48.335Z,4.57
2019-02-12T15:55:17.877Z,4.33
2019-02-12T15:57:47.335Z,4.77
2019-02-12T16:00:20.443Z,4.47
2019-02-12T16:02:49.349Z,4.80
2019-02-12T16:05:18.813Z,5.30
2019-02-12T16:07:48.246Z,4.33
2019-02-12T16:10:21.073Z,3.80
2019-02-12T16:12:51.647Z,4.37
2019-02-12T16:15:24.292Z,4.17
2019-02-12T16:17:52.561Z,4.60
2019-02-12T16:20:22.019Z,4.33
2019-02-12T16:22:51.457Z,4.40
2019-02-12T16:25:20.920Z,4.03
2019-02-12T16:27:50.603Z,3.87
2019-02-12T16:30:21.893Z,3.93
2019-02-12T16:32:51.312Z,4.10
2019-02-12T16:35:20.777Z,3.90
2019-02-12T16:37:50.275Z,4.10
2019-02-12T16:40:19.772Z,4.43
2019-02-12T16:42:49.289Z,3.60
2019-02-12T16:45:33.747Z,3.83
2019-02-12T16:48:03.240Z,4.30
2019-02-12T16:50:32.777Z,4.73
2019-02-12T16:53:02.191Z,4.23
2019-02-12T16:55:31.644Z,4.47
2019-02-12T16:58:01.197Z,4.60
2019-02-12T17:00:30.659Z,4.80
2019-02-12T17:03:00.023Z,5.90
2019-02-12T17:05:29.568Z,5.00
2019-02-12T17:07:58.984Z,4.23
2019-02-12T17:10:28.440Z,4.90
2019-02-12T17:12:57.871Z,5.00
2019-02-12T17:15:27.318Z,4.17
2019-02-12T17:17:56.731Z,4.60
2019-02-12T17:20:26.136Z,4.40
2019-02-12T17:22:55.634Z,4.53
2019-02-12T17:25:25.100Z,4.83
2019-02-12T17:27:54.453Z,4.37
2019-02-12T17:30:23.964Z,4.07
2019-02-12T17:32:53.378Z,5.70
2019-02-12T17:35:22.776Z,5.00
2019-02-12T17:37:52.214Z,4.27
2019-02-12T17:40:21.756Z,4.30
2019-02-12T17:42:51.390Z,4.20
2019-02-12T17:45:20.850Z,4.30
2019-02-12T17:47:50.262Z,3.97
2019-02-12T17:50:19.798Z,4.90
2019-02-12T17:52:49.225Z,4.97
2019-02-12T17:55:18.641Z,5.33
2019-02-12T17:57:48.047Z,5.00
2019-02-12T18:00:22.068Z,5.40
2019-02-12T18:02:51.526Z,4.67
2019-02-12T18:05:20.979Z,4.57
2019-02-12T18:07:50.398Z,4.60
2019-02-12T18:10:19.795Z,4.77
2019-02-12T18:12:49.461Z,4.83
2019-02-12T18:15:18.913Z,5.17
2019-02-12T18:17:48.330Z,5.20
2019-02-12T18:20:26.084Z,5.27
2019-02-12T18:22:49.467Z,4.90
2019-02-12T18:25:18.942Z,5.10
2019-02-12T18:27:48.329Z,5.50
2019-02-12T18:30:18.380Z,5.97
2019-02-12T18:32:47.844Z,5.53
2019-02-12T18:35:17.308Z,6.40
2019-02-12T18:37:48.427Z,5.80
2019-02-12T18:40:18.465Z,5.07
2019-02-12T18:42:47.953Z,6.47
2019-02-12T18:45:24.772Z,6.40
2019-02-12T18:47:54.453Z,6.60
2019-02-12T18:50:23.944Z,6.97
2019-02-12T18:52:53.301Z,7.13
2019-02-12T18:55:22.702Z,7.23
2019-02-12T18:57:52.304Z,7.90
2019-02-12T19:00:22.908Z,8.03
2019-02-12T19:02:52.415Z,8.97
2019-02-12T19:05:21.945Z,8.97
2019-02-12T19:07:51.430Z,9.03
2019-02-12T19:10:21.248Z,10.17
2019-02-12T19:12:50.673Z,10.27
2019-02-12T19:15:22.074Z,10.07
2019-02-12T19:18:14.027Z,11.97
2019-02-12T19:20:43.493Z,11.20
2019-02-12T19:23:12.991Z,12.33
2019-02-12T19:25:43.221Z,11.13
2019-02-12T19:28:12.628Z,12.60
2019-02-12T19:30:42.230Z,12.87
2019-02-12T19:33:13.138Z,13.20
2019-02-12T19:35:44.071Z,12.63
2019-02-12T19:38:13.544Z,13.53
2019-02-12T19:40:43.014Z,12.30
2019-02-12T19:43:12.408Z,13.23
2019-02-12T19:45:41.880Z,13.30
2019-02-12T19:48:11.418Z,15.73
2019-02-12T19:50:40.885Z,14.63
2019-02-12T19:53:10.348Z,14.63
2019-02-12T19:55:39.886Z,14.83
2019-02-12T19:58:09.523Z,15.73
2019-02-12T20:00:39.319Z,15.80
2019-02-12T20:03:08.899Z,15.47
2019-02-12T20:05:38.384Z,15.83
2019-02-12T20:08:07.789Z,15.83
2019-02-12T20:10:37.312Z,16.43
2019-02-12T20:13:06.857Z,15.90
2019-02-12T20:15:37.823Z,16.07
2019-02-12T20:18:08.195Z,17.13
2019-02-12T20:20:37.635Z,15.63
2019-02-12T20:23:07.253Z,17.10
2019-02-12T20:25:36.790Z,17.27
2019-02-12T20:28:06.331Z,17.57
2019-02-12T20:30:35.849Z,18.53
2019-02-12T20:33:05.461Z,17.63
2019-02-12T20:35:36.426Z,18.03
2019-02-12T20:38:05.896Z,18.63
2019-02-12T20:40:35.333Z,19.03
2019-02-12T20:43:06.280Z,17.70
2019-02-12T20:45:35.780Z,19.90
2019-02-12T20:48:06.968Z,19.83
2019-02-12T20:50:36.423Z,18.30
2019-02-12T20:53:18.524Z,19.57
2019-02-12T20:55:48.003Z,19.80
2019-02-12T20:58:17.535Z,19.20
2019-02-12T21:00:47.011Z,19.47
2019-02-12T21:03:16.465Z,19.60
2019-02-12T21:05:46.095Z,20.07
2019-02-12T21:08:34.817Z,20.53
2019-02-12T21:11:04.276Z,20.50
2019-02-12T21:13:33.679Z,21.40
2019-02-12T21:16:03.087Z,19.60
2019-02-12T21:18:32.486Z,19.77
2019-02-12T21:21:01.877Z,20.57
2019-02-12T21:23:31.412Z,20.10
2019-02-12T21:26:00.963Z,19.77
2019-02-12T21:28:30.467Z,21.50
2019-02-12T21:31:00.363Z,20.83
2019-02-12T21:33:29.793Z,20.93
2019-02-12T21:35:59.252Z,20.80
2019-02-12T21:38:28.718Z,19.53
2019-02-12T21:40:58.963Z,20.33
2019-02-12T21:43:28.408Z,22.00
2019-02-12T21:45:57.928Z,20.27
2019-02-12T21:48:27.338Z,19.83
2019-02-12T21:50:56.802Z,20.87
2019-02-12T21:53:26.286Z,18.77
2019-02-12T21:55:55.641Z,18.63
2019-02-12T21:58:25.207Z,20.67
2019-02-12T22:00:54.628Z,19.13
2019-02-12T22:03:24.227Z,18.97
2019-02-12T22:05:55.146Z,17.80
2019-02-12T22:08:24.518Z,19.13
2019-02-12T22:10:53.982Z,18.87
2019-02-12T22:13:42.697Z,19.00
2019-02-12T22:16:12.235Z,18.27
2019-02-12T22:18:41.768Z,17.77
2019-02-12T22:21:11.239Z,18.03
2019-02-12T22:23:42.479Z,17.87
2019-02-12T22:26:11.941Z,17.23
2019-02-12T22:28:41.390Z,16.57
2019-02-12T22:31:10.904Z,17.10
2019-02-12T22:33:40.456Z,17.63
2019-02-12T22:36:09.908Z,17.23
2019-02-12T22:38:39.367Z,16.93
2019-02-12T22:41:08.790Z,17.43
2019-02-12T22:43:38.261Z,16.93
2019-02-12T22:46:07.795Z,15.90
2019-02-12T22:48:37.190Z,16.20
2019-02-12T22:51:06.774Z,15.60
2019-02-12T22:53:36.209Z,15.40
2019-02-12T22:56:05.679Z,15.27
2019-02-12T22:58:35.158Z,14.73
2019-02-12T23:01:06.268Z,14.73
2019-02-12T23:03:35.776Z,14.80
2019-02-12T23:06:05.483Z,15.40
2019-02-12T23:08:35.035Z,14.50
2019-02-12T23:11:05.131Z,14.80
2019-02-12T23:13:36.129Z,13.87
2019-02-12T23:16:05.783Z,15.27
2019-02-12T23:18:35.241Z,14.03
2019-02-12T23:21:04.874Z,14.07
2019-02-12T23:23:34.307Z,14.60
2019-02-12T23:26:03.759Z,14.90
2019-02-12T23:28:46.571Z,14.30
2019-02-12T23:31:15.969Z,14.73
2019-02-12T23:33:45.440Z,15.37
2019-02-12T23:36:14.837Z,14.60
2019-02-12T23:38:44.220Z,14.73
2019-02-12T23:41:13.675Z,14.20
2019-02-12T23:43:43.035Z,15.00
2019-02-12T23:46:12.497Z,13.57
2019-02-12T23:48:41.855Z,13.63
2019-02-12T23:51:11.408Z,14.00
2019-02-12T23:53:40.763Z,12.70
2019-02-12T23:56:12.143Z,12.10
2019-02-12T23:58:41.492Z,13.03
